sensor_id;sensor_type;location;lat;lon;timestamp;temperature;humidity
7248;DHT22;3665;51.034;13.642;2023-01-31T00:02:21;2.50;20.40
7248;DHT22;3665;51.034;13.642;2023-01-31T00:07:06;2.40;27.80
7248;DHT22;3665;51.034;13.642;2023-01-31T00:11:55;2.50;18.10
7248;DHT22;3665;51.034;13.642;2023-01-31T00:16:42;2.50;12.20
7248;DHT22;3665;51.034;13.642;2023-01-31T00:21:34;2.50;17.30
7248;DHT22;3665;51.034;13.642;2023-01-31T00:26:20;2.50;6.70
7248;DHT22;3665;51.034;13.642;2023-01-31T00:31:06;2.60;7.00
7248;DHT22;3665;51.034;13.642;2023-01-31T00:35:56;2.70;5.20
7248;DHT22;3665;51.034;13.642;2023-01-31T00:40:51;2.70;18.30
7248;DHT22;3665;51.034;13.642;2023-01-31T00:45:45;2.60;50.50
7248;DHT22;3665;51.034;13.642;2023-01-31T00:50:39;2.40;99.90
7248;DHT22;3665;51.034;13.642;2023-01-31T00:55:37;2.20;99.90
7248;DHT22;3665;51.034;13.642;2023-01-31T01:00:27;2.00;99.90
7248;DHT22;3665;51.034;13.642;2023-01-31T01:05:17;1.90;99.90
7248;DHT22;3665;51.034;13.642;2023-01-31T01:10:02;1.80;99.90
7248;DHT22;3665;51.034;13.642;2023-01-31T01:14:55;1.70;99.90
7248;DHT22;3665;51.034;13.642;2023-01-31T01:19:40;1.60;99.90
7248;DHT22;3665;51.034;13.642;2023-01-31T01:24:27;1.40;99.90
7248;DHT22;3665;51.034;13.642;2023-01-31T01:29:17;1.50;99.90
7248;DHT22;3665;51.034;13.642;2023-01-31T01:34:07;1.70;99.90
7248;DHT22;3665;51.034;13.642;2023-01-31T01:39:15;1.70;99.90
7248;DHT22;3665;51.034;13.642;2023-01-31T01:49:35;1.30;1.00
7248;DHT22;3665;51.034;13.642;2023-01-31T02:00:34;1.30;92.70
7248;DHT22;3665;51.034;13.642;2023-01-31T02:05:33;1.50;1.00
7248;DHT22;3665;51.034;13.642;2023-01-31T02:10:39;1.50;1.00
7248;DHT22;3665;51.034;13.642;2023-01-31T02:15:42;1.50;1.00
7248;DHT22;3665;51.034;13.642;2023-01-31T02:26:11;1.70;12.60
7248;DHT22;3665;51.034;13.642;2023-01-31T02:37:39;1.80;1.00
7248;DHT22;3665;51.034;13.642;2023-01-31T02:42:58;1.80;99.90
7248;DHT22;3665;51.034;13.642;2023-01-31T02:48:03;1.80;99.90
7248;DHT22;3665;51.034;13.642;2023-01-31T02:53:19;1.90;99.90
7248;DHT22;3665;51.034;13.642;2023-01-31T02:58:26;1.90;99.90
7248;DHT22;3665;51.034;13.642;2023-01-31T03:03:28;1.90;99.90
7248;DHT22;3665;51.034;13.642;2023-01-31T03:08:32;1.80;99.90
7248;DHT22;3665;51.034;13.642;2023-01-31T03:13:32;1.90;99.90
7248;DHT22;3665;51.034;13.642;2023-01-31T03:18:22;1.80;99.90
7248;DHT22;3665;51.034;13.642;2023-01-31T03:23:09;1.80;99.90
7248;DHT22;3665;51.034;13.642;2023-01-31T03:27:59;1.80;99.90
7248;DHT22;3665;51.034;13.642;2023-01-31T03:32:58;1.70;99.90
7248;DHT22;3665;51.034;13.642;2023-01-31T03:37:51;1.80;99.90
7248;DHT22;3665;51.034;13.642;2023-01-31T03:43:13;1.70;99.90
7248;DHT22;3665;51.034;13.642;2023-01-31T03:48:35;1.50;1.00
7248;DHT22;3665;51.034;13.642;2023-01-31T03:53:35;1.30;1.00
7248;DHT22;3665;51.034;13.642;2023-01-31T03:58:25;1.10;1.00
7248;DHT22;3665;51.034;13.642;2023-01-31T04:03:41;1.10;99.90
7248;DHT22;3665;51.034;13.642;2023-01-31T04:08:26;1.20;99.90
7248;DHT22;3665;51.034;13.642;2023-01-31T04:13:34;1.00;99.90
7248;DHT22;3665;51.034;13.642;2023-01-31T04:18:18;1.00;99.90
7248;DHT22;3665;51.034;13.642;2023-01-31T04:23:26;1.10;99.90
7248;DHT22;3665;51.034;13.642;2023-01-31T04:28:10;1.20;99.90
7248;DHT22;3665;51.034;13.642;2023-01-31T04:33:04;1.30;99.90
7248;DHT22;3665;51.034;13.642;2023-01-31T04:37:49;1.40;99.90
7248;DHT22;3665;51.034;13.642;2023-01-31T04:42:36;1.50;99.90
7248;DHT22;3665;51.034;13.642;2023-01-31T04:47:24;1.40;99.90
7248;DHT22;3665;51.034;13.642;2023-01-31T04:52:11;1.40;99.90
7248;DHT22;3665;51.034;13.642;2023-01-31T04:56:57;1.50;1.00
7248;DHT22;3665;51.034;13.642;2023-01-31T05:01:47;1.50;99.90
7248;DHT22;3665;51.034;13.642;2023-01-31T05:06:36;1.50;1.00
7248;DHT22;3665;51.034;13.642;2023-01-31T05:11:26;1.50;1.00
7248;DHT22;3665;51.034;13.642;2023-01-31T05:16:13;1.50;99.90
7248;DHT22;3665;51.034;13.642;2023-01-31T05:20:57;1.60;99.90
7248;DHT22;3665;51.034;13.642;2023-01-31T05:25:49;1.60;1.00
7248;DHT22;3665;51.034;13.642;2023-01-31T05:30:38;1.70;99.90
7248;DHT22;3665;51.034;13.642;2023-01-31T05:36:03;1.70;1.00
7248;DHT22;3665;51.034;13.642;2023-01-31T05:40:59;1.80;99.90
7248;DHT22;3665;51.034;13.642;2023-01-31T05:45:48;1.90;1.00
7248;DHT22;3665;51.034;13.642;2023-01-31T05:50:34;1.90;1.00
7248;DHT22;3665;51.034;13.642;2023-01-31T05:55:53;1.90;1.00
7248;DHT22;3665;51.034;13.642;2023-01-31T06:07:09;1.90;1.00
7248;DHT22;3665;51.034;13.642;2023-01-31T06:11:56;1.80;1.00
7248;DHT22;3665;51.034;13.642;2023-01-31T06:16:45;1.80;1.00
7248;DHT22;3665;51.034;13.642;2023-01-31T06:21:29;1.80;1.00
7248;DHT22;3665;51.034;13.642;2023-01-31T06:26:25;1.80;1.00
7248;DHT22;3665;51.034;13.642;2023-01-31T06:31:09;1.70;1.00
7248;DHT22;3665;51.034;13.642;2023-01-31T06:36:10;1.80;1.00
7248;DHT22;3665;51.034;13.642;2023-01-31T06:40:58;1.90;1.00
7248;DHT22;3665;51.034;13.642;2023-01-31T06:45:48;1.80;1.00
7248;DHT22;3665;51.034;13.642;2023-01-31T06:50:34;1.80;1.00
7248;DHT22;3665;51.034;13.642;2023-01-31T06:55:21;1.70;1.00
7248;DHT22;3665;51.034;13.642;2023-01-31T07:00:16;1.70;1.00
7248;DHT22;3665;51.034;13.642;2023-01-31T07:05:02;1.70;1.00
7248;DHT22;3665;51.034;13.642;2023-01-31T07:09:46;1.80;1.00
7248;DHT22;3665;51.034;13.642;2023-01-31T07:14:54;1.70;99.90
7248;DHT22;3665;51.034;13.642;2023-01-31T07:19:38;1.90;99.90
7248;DHT22;3665;51.034;13.642;2023-01-31T07:24:27;1.90;99.90
7248;DHT22;3665;51.034;13.642;2023-01-31T07:29:14;2.00;99.90
7248;DHT22;3665;51.034;13.642;2023-01-31T07:34:03;2.30;99.90
7248;DHT22;3665;51.034;13.642;2023-01-31T07:38:52;2.30;99.90
7248;DHT22;3665;51.034;13.642;2023-01-31T07:43:39;2.40;99.90
7248;DHT22;3665;51.034;13.642;2023-01-31T07:48:26;2.50;99.90
7248;DHT22;3665;51.034;13.642;2023-01-31T07:53:13;2.30;99.90
7248;DHT22;3665;51.034;13.642;2023-01-31T07:58:06;2.30;99.90
7248;DHT22;3665;51.034;13.642;2023-01-31T08:02:51;2.20;99.90
7248;DHT22;3665;51.034;13.642;2023-01-31T08:07:55;2.40;99.90
7248;DHT22;3665;51.034;13.642;2023-01-31T08:12:51;2.40;99.90
7248;DHT22;3665;51.034;13.642;2023-01-31T08:17:46;2.50;96.70
7248;DHT22;3665;51.034;13.642;2023-01-31T08:22:41;2.60;47.80
7248;DHT22;3665;51.034;13.642;2023-01-31T08:27:24;2.90;28.40
7248;DHT22;3665;51.034;13.642;2023-01-31T08:32:12;3.00;21.30
7248;DHT22;3665;51.034;13.642;2023-01-31T08:36:58;2.90;1.00
7248;DHT22;3665;51.034;13.642;2023-01-31T08:41:47;2.90;1.00
7248;DHT22;3665;51.034;13.642;2023-01-31T08:46:35;2.70;3.00
7248;DHT22;3665;51.034;13.642;2023-01-31T08:51:22;2.80;1.00
7248;DHT22;3665;51.034;13.642;2023-01-31T08:56:12;2.90;1.00
7248;DHT22;3665;51.034;13.642;2023-01-31T09:01:02;3.00;1.00
7248;DHT22;3665;51.034;13.642;2023-01-31T09:05:46;3.00;1.00
7248;DHT22;3665;51.034;13.642;2023-01-31T09:10:34;3.10;1.00
7248;DHT22;3665;51.034;13.642;2023-01-31T09:15:25;3.20;1.00
7248;DHT22;3665;51.034;13.642;2023-01-31T09:20:13;3.20;1.00
7248;DHT22;3665;51.034;13.642;2023-01-31T09:24:59;3.20;1.00
7248;DHT22;3665;51.034;13.642;2023-01-31T09:29:47;3.20;1.00
7248;DHT22;3665;51.034;13.642;2023-01-31T09:34:35;3.70;1.00
7248;DHT22;3665;51.034;13.642;2023-01-31T09:39:23;4.00;1.00
7248;DHT22;3665;51.034;13.642;2023-01-31T09:44:14;4.10;1.00
7248;DHT22;3665;51.034;13.642;2023-01-31T09:49:01;4.10;1.00
7248;DHT22;3665;51.034;13.642;2023-01-31T09:53:47;4.00;1.00
7248;DHT22;3665;51.034;13.642;2023-01-31T09:58:51;3.90;1.00
7248;DHT22;3665;51.034;13.642;2023-01-31T10:09:06;4.20;1.00
7248;DHT22;3665;51.034;13.642;2023-01-31T10:14:21;4.40;1.00
7248;DHT22;3665;51.034;13.642;2023-01-31T10:19:08;4.50;1.00
7248;DHT22;3665;51.034;13.642;2023-01-31T10:23:56;4.50;1.00
7248;DHT22;3665;51.034;13.642;2023-01-31T10:28:47;4.20;1.00
7248;DHT22;3665;51.034;13.642;2023-01-31T10:33:39;4.20;1.00
7248;DHT22;3665;51.034;13.642;2023-01-31T10:38:37;4.00;1.00
7248;DHT22;3665;51.034;13.642;2023-01-31T10:43:38;4.10;1.00
7248;DHT22;3665;51.034;13.642;2023-01-31T10:48:28;4.00;1.00
7248;DHT22;3665;51.034;13.642;2023-01-31T10:53:34;4.00;1.00
7248;DHT22;3665;51.034;13.642;2023-01-31T10:58:27;4.00;1.00
7248;DHT22;3665;51.034;13.642;2023-01-31T11:03:25;3.90;1.00
7248;DHT22;3665;51.034;13.642;2023-01-31T11:08:31;3.80;1.00
7248;DHT22;3665;51.034;13.642;2023-01-31T11:13:17;3.90;1.00
7248;DHT22;3665;51.034;13.642;2023-01-31T11:18:25;4.00;1.00
7248;DHT22;3665;51.034;13.642;2023-01-31T11:23:29;4.10;1.00
7248;DHT22;3665;51.034;13.642;2023-01-31T11:28:34;4.20;1.00
7248;DHT22;3665;51.034;13.642;2023-01-31T11:33:54;4.40;1.00
7248;DHT22;3665;51.034;13.642;2023-01-31T11:38:53;4.50;1.00
7248;DHT22;3665;51.034;13.642;2023-01-31T11:43:38;4.60;1.00
7248;DHT22;3665;51.034;13.642;2023-01-31T11:48:30;4.60;1.00
7248;DHT22;3665;51.034;13.642;2023-01-31T11:53:16;4.80;1.00
7248;DHT22;3665;51.034;13.642;2023-01-31T11:58:08;4.80;1.00
7248;DHT22;3665;51.034;13.642;2023-01-31T12:03:14;4.90;1.00
7248;DHT22;3665;51.034;13.642;2023-01-31T12:08:28;4.80;1.00
7248;DHT22;3665;51.034;13.642;2023-01-31T12:13:16;4.90;1.00
7248;DHT22;3665;51.034;13.642;2023-01-31T12:18:08;4.90;1.00
7248;DHT22;3665;51.034;13.642;2023-01-31T12:23:15;4.80;1.00
7248;DHT22;3665;51.034;13.642;2023-01-31T12:34:02;5.00;1.00
7248;DHT22;3665;51.034;13.642;2023-01-31T12:39:11;4.80;1.00
7248;DHT22;3665;51.034;13.642;2023-01-31T12:45:01;4.50;1.00
7248;DHT22;3665;51.034;13.642;2023-01-31T12:50:10;4.30;1.00
7248;DHT22;3665;51.034;13.642;2023-01-31T12:55:24;4.30;1.00
7248;DHT22;3665;51.034;13.642;2023-01-31T13:00:18;4.20;1.00
7248;DHT22;3665;51.034;13.642;2023-01-31T13:05:30;4.20;1.00
7248;DHT22;3665;51.034;13.642;2023-01-31T13:15:56;4.00;1.00
7248;DHT22;3665;51.034;13.642;2023-01-31T13:20:49;3.90;1.00
7248;DHT22;3665;51.034;13.642;2023-01-31T13:25:52;3.90;1.00
7248;DHT22;3665;51.034;13.642;2023-01-31T13:30:56;3.70;1.00
7248;DHT22;3665;51.034;13.642;2023-01-31T13:41:31;3.40;6.90
7248;DHT22;3665;51.034;13.642;2023-01-31T13:46:21;3.10;31.00
7248;DHT22;3665;51.034;13.642;2023-01-31T13:51:43;3.00;92.30
7248;DHT22;3665;51.034;13.642;2023-01-31T14:02:37;3.00;92.70
7248;DHT22;3665;51.034;13.642;2023-01-31T14:07:31;2.90;75.60
7248;DHT22;3665;51.034;13.642;2023-01-31T14:12:32;2.90;99.90
7248;DHT22;3665;51.034;13.642;2023-01-31T14:18:07;2.90;54.80
7248;DHT22;3665;51.034;13.642;2023-01-31T14:28:13;2.90;7.20
7248;DHT22;3665;51.034;13.642;2023-01-31T14:33:23;2.90;2.50
7248;DHT22;3665;51.034;13.642;2023-01-31T14:38:25;2.90;9.70
7248;DHT22;3665;51.034;13.642;2023-01-31T14:43:58;2.80;1.00
7248;DHT22;3665;51.034;13.642;2023-01-31T14:49:14;2.80;11.20
7248;DHT22;3665;51.034;13.642;2023-01-31T14:54:21;2.70;9.50
7248;DHT22;3665;51.034;13.642;2023-01-31T14:59:26;2.80;7.90
7248;DHT22;3665;51.034;13.642;2023-01-31T15:04:27;2.80;3.10
7248;DHT22;3665;51.034;13.642;2023-01-31T15:09:34;2.80;1.20
7248;DHT22;3665;51.034;13.642;2023-01-31T15:19:44;2.80;2.70
7248;DHT22;3665;51.034;13.642;2023-01-31T15:24:58;2.70;19.20
7248;DHT22;3665;51.034;13.642;2023-01-31T15:29:55;2.60;32.60
7248;DHT22;3665;51.034;13.642;2023-01-31T15:35:11;2.50;55.70
7248;DHT22;3665;51.034;13.642;2023-01-31T15:40:19;2.50;69.00
7248;DHT22;3665;51.034;13.642;2023-01-31T15:45:19;2.50;86.50
7248;DHT22;3665;51.034;13.642;2023-01-31T15:50:20;2.40;89.30
7248;DHT22;3665;51.034;13.642;2023-01-31T15:55:08;2.40;99.90
7248;DHT22;3665;51.034;13.642;2023-01-31T15:59:57;2.30;99.90
7248;DHT22;3665;51.034;13.642;2023-01-31T16:04:51;2.30;99.90
7248;DHT22;3665;51.034;13.642;2023-01-31T16:09:51;2.20;99.90
7248;DHT22;3665;51.034;13.642;2023-01-31T16:14:37;2.20;99.90
7248;DHT22;3665;51.034;13.642;2023-01-31T16:19:28;2.10;99.90
7248;DHT22;3665;51.034;13.642;2023-01-31T16:24:31;2.00;1.00
7248;DHT22;3665;51.034;13.642;2023-01-31T16:29:17;2.00;1.00
7248;DHT22;3665;51.034;13.642;2023-01-31T16:34:04;2.10;1.00
7248;DHT22;3665;51.034;13.642;2023-01-31T16:38:57;2.20;1.00
7248;DHT22;3665;51.034;13.642;2023-01-31T16:43:54;2.30;1.00
7248;DHT22;3665;51.034;13.642;2023-01-31T16:49:00;2.30;99.90
7248;DHT22;3665;51.034;13.642;2023-01-31T16:54:13;2.20;99.90
7248;DHT22;3665;51.034;13.642;2023-01-31T16:59:38;2.30;99.90
7248;DHT22;3665;51.034;13.642;2023-01-31T17:04:27;2.30;1.00
7248;DHT22;3665;51.034;13.642;2023-01-31T17:09:19;2.20;1.00
7248;DHT22;3665;51.034;13.642;2023-01-31T17:14:18;2.20;1.00
7248;DHT22;3665;51.034;13.642;2023-01-31T17:19:04;2.20;1.00
7248;DHT22;3665;51.034;13.642;2023-01-31T17:24:01;2.40;99.90
7248;DHT22;3665;51.034;13.642;2023-01-31T17:28:52;2.40;99.90
7248;DHT22;3665;51.034;13.642;2023-01-31T17:33:46;2.50;99.90
7248;DHT22;3665;51.034;13.642;2023-01-31T17:38:36;2.50;1.00
7248;DHT22;3665;51.034;13.642;2023-01-31T17:43:23;2.60;1.00
7248;DHT22;3665;51.034;13.642;2023-01-31T17:48:11;2.60;1.00
7248;DHT22;3665;51.034;13.642;2023-01-31T17:53:06;2.60;1.00
7248;DHT22;3665;51.034;13.642;2023-01-31T17:58:04;2.70;1.00
7248;DHT22;3665;51.034;13.642;2023-01-31T18:02:53;2.70;1.00
7248;DHT22;3665;51.034;13.642;2023-01-31T18:08:12;2.80;1.00
7248;DHT22;3665;51.034;13.642;2023-01-31T18:13:01;2.90;99.90
7248;DHT22;3665;51.034;13.642;2023-01-31T18:17:46;3.00;99.90
7248;DHT22;3665;51.034;13.642;2023-01-31T18:27:56;3.20;99.90
7248;DHT22;3665;51.034;13.642;2023-01-31T18:32:42;3.10;98.00
7248;DHT22;3665;51.034;13.642;2023-01-31T18:37:34;3.30;94.60
7248;DHT22;3665;51.034;13.642;2023-01-31T18:42:21;3.30;94.20
7248;DHT22;3665;51.034;13.642;2023-01-31T18:47:13;3.40;75.80
7248;DHT22;3665;51.034;13.642;2023-01-31T18:52:11;3.40;63.60
7248;DHT22;3665;51.034;13.642;2023-01-31T18:56:58;3.40;56.40
7248;DHT22;3665;51.034;13.642;2023-01-31T19:01:51;3.30;51.40
7248;DHT22;3665;51.034;13.642;2023-01-31T19:06:49;3.40;53.40
7248;DHT22;3665;51.034;13.642;2023-01-31T19:11:43;3.60;52.10
7248;DHT22;3665;51.034;13.642;2023-01-31T19:16:43;3.40;48.50
7248;DHT22;3665;51.034;13.642;2023-01-31T19:21:32;3.30;60.90
7248;DHT22;3665;51.034;13.642;2023-01-31T19:26:37;3.40;64.40
7248;DHT22;3665;51.034;13.642;2023-01-31T19:31:25;3.40;54.80
7248;DHT22;3665;51.034;13.642;2023-01-31T19:36:12;3.50;57.90
7248;DHT22;3665;51.034;13.642;2023-01-31T19:41:03;3.60;33.40
7248;DHT22;3665;51.034;13.642;2023-01-31T19:45:51;3.60;34.60
7248;DHT22;3665;51.034;13.642;2023-01-31T19:50:35;3.60;19.60
7248;DHT22;3665;51.034;13.642;2023-01-31T19:55:22;3.70;15.20
7248;DHT22;3665;51.034;13.642;2023-01-31T20:00:10;3.70;14.00
7248;DHT22;3665;51.034;13.642;2023-01-31T20:05:03;3.70;34.70
7248;DHT22;3665;51.034;13.642;2023-01-31T20:09:47;3.60;60.30
7248;DHT22;3665;51.034;13.642;2023-01-31T20:14:36;3.60;77.60
7248;DHT22;3665;51.034;13.642;2023-01-31T20:19:22;3.60;99.90
7248;DHT22;3665;51.034;13.642;2023-01-31T20:24:17;3.50;99.90
7248;DHT22;3665;51.034;13.642;2023-01-31T20:29:34;3.40;99.90
7248;DHT22;3665;51.034;13.642;2023-01-31T20:34:19;3.30;1.00
7248;DHT22;3665;51.034;13.642;2023-01-31T20:39:05;3.20;1.00
7248;DHT22;3665;51.034;13.642;2023-01-31T20:43:55;3.30;99.90
7248;DHT22;3665;51.034;13.642;2023-01-31T20:48:42;3.40;99.90
7248;DHT22;3665;51.034;13.642;2023-01-31T20:53:32;3.40;99.90
7248;DHT22;3665;51.034;13.642;2023-01-31T20:58:19;3.50;99.90
7248;DHT22;3665;51.034;13.642;2023-01-31T21:03:07;3.60;99.90
7248;DHT22;3665;51.034;13.642;2023-01-31T21:07:54;3.60;99.90
7248;DHT22;3665;51.034;13.642;2023-01-31T21:12:46;3.60;99.90
7248;DHT22;3665;51.034;13.642;2023-01-31T21:17:33;3.50;1.00
7248;DHT22;3665;51.034;13.642;2023-01-31T21:27:47;3.00;1.00
7248;DHT22;3665;51.034;13.642;2023-01-31T21:32:58;2.90;1.00
7248;DHT22;3665;51.034;13.642;2023-01-31T21:37:48;3.00;99.90
7248;DHT22;3665;51.034;13.642;2023-01-31T21:42:35;2.90;99.90
7248;DHT22;3665;51.034;13.642;2023-01-31T21:47:23;2.90;99.90
7248;DHT22;3665;51.034;13.642;2023-01-31T21:52:10;2.90;1.00
7248;DHT22;3665;51.034;13.642;2023-01-31T21:57:05;3.10;1.00
7248;DHT22;3665;51.034;13.642;2023-01-31T22:01:48;3.10;1.00
7248;DHT22;3665;51.034;13.642;2023-01-31T22:06:35;3.10;1.00
7248;DHT22;3665;51.034;13.642;2023-01-31T22:11:22;3.30;1.00
7248;DHT22;3665;51.034;13.642;2023-01-31T22:16:12;3.40;1.00
7248;DHT22;3665;51.034;13.642;2023-01-31T22:21:01;3.30;1.00
7248;DHT22;3665;51.034;13.642;2023-01-31T22:25:46;3.50;1.00
7248;DHT22;3665;51.034;13.642;2023-01-31T22:30:55;3.50;1.00
7248;DHT22;3665;51.034;13.642;2023-01-31T22:35:41;3.60;99.90
7248;DHT22;3665;51.034;13.642;2023-01-31T22:40:27;3.60;99.90
7248;DHT22;3665;51.034;13.642;2023-01-31T22:45:17;3.50;99.90
7248;DHT22;3665;51.034;13.642;2023-01-31T22:50:04;3.50;99.90
7248;DHT22;3665;51.034;13.642;2023-01-31T22:54:54;3.60;99.90
7248;DHT22;3665;51.034;13.642;2023-01-31T22:59:37;3.60;99.90
7248;DHT22;3665;51.034;13.642;2023-01-31T23:04:35;3.50;99.90
7248;DHT22;3665;51.034;13.642;2023-01-31T23:09:32;3.60;99.90
7248;DHT22;3665;51.034;13.642;2023-01-31T23:14:20;3.50;95.70
7248;DHT22;3665;51.034;13.642;2023-01-31T23:19:06;3.40;99.90
7248;DHT22;3665;51.034;13.642;2023-01-31T23:23:56;3.40;99.90
7248;DHT22;3665;51.034;13.642;2023-01-31T23:29:03;3.40;99.90
7248;DHT22;3665;51.034;13.642;2023-01-31T23:34:05;3.50;83.90
7248;DHT22;3665;51.034;13.642;2023-01-31T23:38:49;3.70;47.00
7248;DHT22;3665;51.034;13.642;2023-01-31T23:43:39;3.70;31.90
7248;DHT22;3665;51.034;13.642;2023-01-31T23:49:06;3.70;17.60
